sensor_id;sensor_type;location;lat;lon;timestamp;P1;durP1;ratioP1;P2;durP2;ratioP2
21392;SDS011;10857;52.228;21.026;2022-07-04T00:01:45;10.38;;;9.30;;
21392;SDS011;10857;52.228;21.026;2022-07-04T00:04:12;10.20;;;9.10;;
21392;SDS011;10857;52.228;21.026;2022-07-04T00:06:40;12.18;;;9.00;;
21392;SDS011;10857;52.228;21.026;2022-07-04T00:09:07;11.75;;;9.30;;
21392;SDS011;10857;52.228;21.026;2022-07-04T00:11:34;9.98;;;9.00;;
21392;SDS011;10857;52.228;21.026;2022-07-04T00:14:01;11.52;;;9.52;;
21392;SDS011;10857;52.228;21.026;2022-07-04T00:16:28;10.32;;;9.23;;
21392;SDS011;10857;52.228;21.026;2022-07-04T00:18:58;10.55;;;9.45;;
21392;SDS011;10857;52.228;21.026;2022-07-04T00:21:29;11.30;;;9.43;;
21392;SDS011;10857;52.228;21.026;2022-07-04T00:23:58;11.57;;;10.38;;
21392;SDS011;10857;52.228;21.026;2022-07-04T00:26:27;13.20;;;9.73;;
21392;SDS011;10857;52.228;21.026;2022-07-04T00:28:54;12.10;;;10.82;;
21392;SDS011;10857;52.228;21.026;2022-07-04T00:31:23;12.60;;;11.30;;
21392;SDS011;10857;52.228;21.026;2022-07-04T00:33:51;11.95;;;10.68;;
21392;SDS011;10857;52.228;21.026;2022-07-04T00:36:18;11.93;;;10.73;;
21392;SDS011;10857;52.228;21.026;2022-07-04T00:38:48;12.48;;;11.02;;
21392;SDS011;10857;52.228;21.026;2022-07-04T00:41:19;13.45;;;12.05;;
21392;SDS011;10857;52.228;21.026;2022-07-04T00:44:05;13.43;;;12.13;;
21392;SDS011;10857;52.228;21.026;2022-07-04T00:46:40;13.00;;;10.93;;
21392;SDS011;10857;52.228;21.026;2022-07-04T00:49:09;14.32;;;12.13;;
21392;SDS011;10857;52.228;21.026;2022-07-04T00:51:38;13.20;;;11.90;;
21392;SDS011;10857;52.228;21.026;2022-07-04T00:54:07;14.10;;;11.82;;
21392;SDS011;10857;52.228;21.026;2022-07-04T00:56:38;15.05;;;12.73;;
21392;SDS011;10857;52.228;21.026;2022-07-04T00:59:09;12.77;;;11.45;;
21392;SDS011;10857;52.228;21.026;2022-07-04T01:01:37;13.40;;;11.75;;
21392;SDS011;10857;52.228;21.026;2022-07-04T01:04:08;13.38;;;11.95;;
21392;SDS011;10857;52.228;21.026;2022-07-04T01:06:38;15.35;;;11.85;;
21392;SDS011;10857;52.228;21.026;2022-07-04T01:09:07;14.82;;;12.65;;
21392;SDS011;10857;52.228;21.026;2022-07-04T01:11:34;13.45;;;12.07;;
21392;SDS011;10857;52.228;21.026;2022-07-04T01:14:02;13.43;;;12.13;;
21392;SDS011;10857;52.228;21.026;2022-07-04T01:16:32;13.77;;;12.20;;
21392;SDS011;10857;52.228;21.026;2022-07-04T01:19:03;14.65;;;12.52;;
21392;SDS011;10857;52.228;21.026;2022-07-04T01:21:33;13.25;;;11.90;;
21392;SDS011;10857;52.228;21.026;2022-07-04T01:24:16;13.20;;;11.80;;
21392;SDS011;10857;52.228;21.026;2022-07-04T01:26:52;15.27;;;13.05;;
21392;SDS011;10857;52.228;21.026;2022-07-04T01:29:26;15.07;;;12.00;;
21392;SDS011;10857;52.228;21.026;2022-07-04T01:32:11;16.02;;;13.00;;
21392;SDS011;10857;52.228;21.026;2022-07-04T01:34:39;15.57;;;12.15;;
21392;SDS011;10857;52.228;21.026;2022-07-04T01:37:10;14.00;;;12.40;;
21392;SDS011;10857;52.228;21.026;2022-07-04T01:39:41;14.27;;;12.82;;
21392;SDS011;10857;52.228;21.026;2022-07-04T01:42:13;22.75;;;12.93;;
21392;SDS011;10857;52.228;21.026;2022-07-04T01:44:43;15.15;;;13.32;;
21392;SDS011;10857;52.228;21.026;2022-07-04T01:47:11;14.40;;;12.90;;
21392;SDS011;10857;52.228;21.026;2022-07-04T01:49:38;16.02;;;13.55;;
21392;SDS011;10857;52.228;21.026;2022-07-04T01:52:07;15.68;;;13.90;;
21392;SDS011;10857;52.228;21.026;2022-07-04T01:54:34;16.40;;;14.25;;
21392;SDS011;10857;52.228;21.026;2022-07-04T01:57:01;14.80;;;13.13;;
21392;SDS011;10857;52.228;21.026;2022-07-04T01:59:30;19.27;;;15.63;;
21392;SDS011;10857;52.228;21.026;2022-07-04T02:02:16;21.15;;;16.52;;
21392;SDS011;10857;52.228;21.026;2022-07-04T02:04:45;20.05;;;17.55;;
21392;SDS011;10857;52.228;21.026;2022-07-04T02:07:18;20.30;;;17.02;;
21392;SDS011;10857;52.228;21.026;2022-07-04T02:09:49;19.13;;;16.40;;
21392;SDS011;10857;52.228;21.026;2022-07-04T02:15:46;20.63;;;15.90;;
21392;SDS011;10857;52.228;21.026;2022-07-04T02:18:13;16.67;;;14.82;;
21392;SDS011;10857;52.228;21.026;2022-07-04T02:20:40;17.38;;;15.57;;
21392;SDS011;10857;52.228;21.026;2022-07-04T02:23:10;19.58;;;15.68;;
21392;SDS011;10857;52.228;21.026;2022-07-04T02:25:37;17.70;;;15.73;;
21392;SDS011;10857;52.228;21.026;2022-07-04T02:28:04;18.33;;;16.33;;
21392;SDS011;10857;52.228;21.026;2022-07-04T02:30:34;19.02;;;15.88;;
21392;SDS011;10857;52.228;21.026;2022-07-04T02:33:03;17.40;;;15.57;;
21392;SDS011;10857;52.228;21.026;2022-07-04T02:35:31;18.65;;;16.65;;
21392;SDS011;10857;52.228;21.026;2022-07-04T02:38:00;18.80;;;16.30;;
21392;SDS011;10857;52.228;21.026;2022-07-04T02:40:27;17.85;;;16.02;;
21392;SDS011;10857;52.228;21.026;2022-07-04T02:42:56;17.52;;;15.55;;
21392;SDS011;10857;52.228;21.026;2022-07-04T02:45:25;17.45;;;15.35;;
21392;SDS011;10857;52.228;21.026;2022-07-04T02:47:58;17.20;;;15.45;;
21392;SDS011;10857;52.228;21.026;2022-07-04T02:50:34;18.40;;;15.25;;
21392;SDS011;10857;52.228;21.026;2022-07-04T02:53:03;18.75;;;15.27;;
21392;SDS011;10857;52.228;21.026;2022-07-04T02:55:36;17.88;;;15.68;;
21392;SDS011;10857;52.228;21.026;2022-07-04T02:58:06;19.70;;;16.65;;
21392;SDS011;10857;52.228;21.026;2022-07-04T03:00:37;17.52;;;15.27;;
21392;SDS011;10857;52.228;21.026;2022-07-04T03:03:04;18.88;;;15.32;;
21392;SDS011;10857;52.228;21.026;2022-07-04T03:05:31;17.38;;;15.68;;
21392;SDS011;10857;52.228;21.026;2022-07-04T03:07:59;17.13;;;14.48;;
21392;SDS011;10857;52.228;21.026;2022-07-04T03:10:27;18.60;;;16.60;;
21392;SDS011;10857;52.228;21.026;2022-07-04T03:12:54;17.20;;;14.60;;
21392;SDS011;10857;52.228;21.026;2022-07-04T03:15:21;19.10;;;15.40;;
21392;SDS011;10857;52.228;21.026;2022-07-04T03:17:48;16.88;;;14.93;;
21392;SDS011;10857;52.228;21.026;2022-07-04T03:20:15;16.33;;;14.57;;
21392;SDS011;10857;52.228;21.026;2022-07-04T03:22:42;16.85;;;14.20;;
21392;SDS011;10857;52.228;21.026;2022-07-04T03:25:09;17.25;;;14.07;;
21392;SDS011;10857;52.228;21.026;2022-07-04T03:27:35;16.08;;;13.90;;
21392;SDS011;10857;52.228;21.026;2022-07-04T03:30:02;16.65;;;13.68;;
21392;SDS011;10857;52.228;21.026;2022-07-04T03:32:30;15.32;;;12.88;;
21392;SDS011;10857;52.228;21.026;2022-07-04T03:34:57;14.90;;;12.27;;
21392;SDS011;10857;52.228;21.026;2022-07-04T03:37:24;15.10;;;12.70;;
21392;SDS011;10857;52.228;21.026;2022-07-04T03:39:52;13.77;;;12.27;;
21392;SDS011;10857;52.228;21.026;2022-07-04T03:42:21;14.45;;;12.07;;
21392;SDS011;10857;52.228;21.026;2022-07-04T03:44:48;15.60;;;11.65;;
21392;SDS011;10857;52.228;21.026;2022-07-04T03:47:16;13.60;;;11.35;;
21392;SDS011;10857;52.228;21.026;2022-07-04T03:49:43;12.65;;;11.27;;
21392;SDS011;10857;52.228;21.026;2022-07-04T03:52:10;12.40;;;10.50;;
21392;SDS011;10857;52.228;21.026;2022-07-04T03:54:40;12.80;;;11.45;;
21392;SDS011;10857;52.228;21.026;2022-07-04T03:57:09;12.52;;;11.18;;
21392;SDS011;10857;52.228;21.026;2022-07-04T03:59:37;12.38;;;11.10;;
21392;SDS011;10857;52.228;21.026;2022-07-04T04:02:04;13.55;;;11.10;;
21392;SDS011;10857;52.228;21.026;2022-07-04T04:04:32;12.90;;;11.60;;
21392;SDS011;10857;52.228;21.026;2022-07-04T04:07:19;15.25;;;11.57;;
21392;SDS011;10857;52.228;21.026;2022-07-04T04:09:46;14.77;;;11.82;;
21392;SDS011;10857;52.228;21.026;2022-07-04T04:12:13;11.88;;;10.57;;
21392;SDS011;10857;52.228;21.026;2022-07-04T04:14:40;13.32;;;11.93;;
21392;SDS011;10857;52.228;21.026;2022-07-04T04:17:07;11.77;;;10.32;;
21392;SDS011;10857;52.228;21.026;2022-07-04T04:19:34;12.02;;;10.27;;
21392;SDS011;10857;52.228;21.026;2022-07-04T04:22:01;10.80;;;9.68;;
21392;SDS011;10857;52.228;21.026;2022-07-04T04:24:28;11.90;;;10.70;;
21392;SDS011;10857;52.228;21.026;2022-07-04T04:26:56;13.55;;;11.05;;
21392;SDS011;10857;52.228;21.026;2022-07-04T04:29:23;12.60;;;10.48;;
21392;SDS011;10857;52.228;21.026;2022-07-04T04:31:53;13.00;;;11.05;;
21392;SDS011;10857;52.228;21.026;2022-07-04T04:34:20;13.07;;;11.70;;
21392;SDS011;10857;52.228;21.026;2022-07-04T04:36:47;12.80;;;11.18;;
21392;SDS011;10857;52.228;21.026;2022-07-04T04:39:14;12.45;;;10.82;;
21392;SDS011;10857;52.228;21.026;2022-07-04T04:41:42;11.88;;;10.05;;
21392;SDS011;10857;52.228;21.026;2022-07-04T04:44:12;13.75;;;11.65;;
21392;SDS011;10857;52.228;21.026;2022-07-04T04:46:40;14.98;;;12.35;;
21392;SDS011;10857;52.228;21.026;2022-07-04T04:49:07;13.13;;;11.77;;
21392;SDS011;10857;52.228;21.026;2022-07-04T04:51:34;12.50;;;10.13;;
21392;SDS011;10857;52.228;21.026;2022-07-04T04:54:02;14.18;;;11.30;;
21392;SDS011;10857;52.228;21.026;2022-07-04T04:56:32;14.38;;;11.95;;
21392;SDS011;10857;52.228;21.026;2022-07-04T04:58:59;13.23;;;11.23;;
21392;SDS011;10857;52.228;21.026;2022-07-04T05:01:28;13.60;;;11.88;;
21392;SDS011;10857;52.228;21.026;2022-07-04T05:04:09;12.95;;;11.65;;
21392;SDS011;10857;52.228;21.026;2022-07-04T05:06:36;12.15;;;10.85;;
21392;SDS011;10857;52.228;21.026;2022-07-04T05:09:09;14.30;;;11.13;;
21392;SDS011;10857;52.228;21.026;2022-07-04T05:11:51;13.82;;;9.57;;
21392;SDS011;10857;52.228;21.026;2022-07-04T05:14:22;12.35;;;10.10;;
21392;SDS011;10857;52.228;21.026;2022-07-04T05:16:49;11.27;;;10.07;;
21392;SDS011;10857;52.228;21.026;2022-07-04T05:19:21;14.15;;;10.55;;
21392;SDS011;10857;52.228;21.026;2022-07-04T05:21:48;10.75;;;9.32;;
21392;SDS011;10857;52.228;21.026;2022-07-04T05:24:17;10.88;;;9.73;;
21392;SDS011;10857;52.228;21.026;2022-07-04T05:26:43;12.63;;;9.60;;
21392;SDS011;10857;52.228;21.026;2022-07-04T05:29:10;13.93;;;9.23;;
21392;SDS011;10857;52.228;21.026;2022-07-04T05:31:37;11.85;;;7.63;;
21392;SDS011;10857;52.228;21.026;2022-07-04T05:34:15;9.88;;;8.55;;
21392;SDS011;10857;52.228;21.026;2022-07-04T05:36:46;10.75;;;8.80;;
21392;SDS011;10857;52.228;21.026;2022-07-04T05:39:15;10.57;;;8.45;;
21392;SDS011;10857;52.228;21.026;2022-07-04T05:41:43;8.52;;;6.90;;
21392;SDS011;10857;52.228;21.026;2022-07-04T05:44:10;11.02;;;7.93;;
21392;SDS011;10857;52.228;21.026;2022-07-04T05:46:37;9.85;;;7.10;;
21392;SDS011;10857;52.228;21.026;2022-07-04T05:49:06;9.07;;;6.68;;
21392;SDS011;10857;52.228;21.026;2022-07-04T05:51:35;10.75;;;8.00;;
21392;SDS011;10857;52.228;21.026;2022-07-04T05:54:03;10.57;;;9.48;;
21392;SDS011;10857;52.228;21.026;2022-07-04T05:56:31;13.75;;;10.27;;
21392;SDS011;10857;52.228;21.026;2022-07-04T05:58:58;13.48;;;11.52;;
21392;SDS011;10857;52.228;21.026;2022-07-04T06:01:27;13.50;;;12.10;;
21392;SDS011;10857;52.228;21.026;2022-07-04T06:03:55;12.68;;;11.25;;
21392;SDS011;10857;52.228;21.026;2022-07-04T06:06:22;12.32;;;11.02;;
21392;SDS011;10857;52.228;21.026;2022-07-04T06:08:50;13.10;;;10.77;;
21392;SDS011;10857;52.228;21.026;2022-07-04T06:11:17;13.93;;;11.57;;
21392;SDS011;10857;52.228;21.026;2022-07-04T06:13:44;13.13;;;11.82;;
21392;SDS011;10857;52.228;21.026;2022-07-04T06:16:18;13.10;;;11.38;;
21392;SDS011;10857;52.228;21.026;2022-07-04T06:18:51;16.27;;;13.35;;
21392;SDS011;10857;52.228;21.026;2022-07-04T06:21:22;14.88;;;12.20;;
21392;SDS011;10857;52.228;21.026;2022-07-04T06:23:49;13.27;;;11.93;;
21392;SDS011;10857;52.228;21.026;2022-07-04T06:26:19;16.20;;;11.50;;
21392;SDS011;10857;52.228;21.026;2022-07-04T06:28:46;15.45;;;9.68;;
21392;SDS011;10857;52.228;21.026;2022-07-04T06:31:13;12.02;;;7.18;;
21392;SDS011;10857;52.228;21.026;2022-07-04T06:33:41;8.35;;;6.75;;
21392;SDS011;10857;52.228;21.026;2022-07-04T06:36:29;6.70;;;6.00;;
21392;SDS011;10857;52.228;21.026;2022-07-04T06:38:57;9.07;;;6.45;;
21392;SDS011;10857;52.228;21.026;2022-07-04T06:41:24;8.55;;;6.93;;
21392;SDS011;10857;52.228;21.026;2022-07-04T06:43:51;10.27;;;8.90;;
21392;SDS011;10857;52.228;21.026;2022-07-04T06:46:19;9.60;;;8.60;;
21392;SDS011;10857;52.228;21.026;2022-07-04T06:48:47;13.25;;;10.07;;
21392;SDS011;10857;52.228;21.026;2022-07-04T06:51:14;8.90;;;7.97;;
21392;SDS011;10857;52.228;21.026;2022-07-04T06:53:41;8.88;;;6.93;;
21392;SDS011;10857;52.228;21.026;2022-07-04T06:56:09;7.28;;;6.53;;
21392;SDS011;10857;52.228;21.026;2022-07-04T06:58:36;11.90;;;6.70;;
21392;SDS011;10857;52.228;21.026;2022-07-04T07:01:03;9.25;;;6.97;;
21392;SDS011;10857;52.228;21.026;2022-07-04T07:03:30;7.60;;;6.72;;
21392;SDS011;10857;52.228;21.026;2022-07-04T07:05:57;8.73;;;6.43;;
21392;SDS011;10857;52.228;21.026;2022-07-04T07:08:30;9.20;;;7.82;;
21392;SDS011;10857;52.228;21.026;2022-07-04T07:10:59;9.82;;;6.85;;
21392;SDS011;10857;52.228;21.026;2022-07-04T07:13:42;8.20;;;6.30;;
21392;SDS011;10857;52.228;21.026;2022-07-04T07:16:11;8.63;;;6.00;;
21392;SDS011;10857;52.228;21.026;2022-07-04T07:18:41;6.95;;;5.72;;
21392;SDS011;10857;52.228;21.026;2022-07-04T07:21:08;9.23;;;5.90;;
21392;SDS011;10857;52.228;21.026;2022-07-04T07:23:38;11.07;;;5.78;;
21392;SDS011;10857;52.228;21.026;2022-07-04T07:26:08;6.85;;;5.50;;
21392;SDS011;10857;52.228;21.026;2022-07-04T07:28:36;6.82;;;4.82;;
21392;SDS011;10857;52.228;21.026;2022-07-04T07:31:03;8.35;;;4.78;;
21392;SDS011;10857;52.228;21.026;2022-07-04T07:33:31;7.40;;;4.78;;
21392;SDS011;10857;52.228;21.026;2022-07-04T07:35:58;5.60;;;5.10;;
21392;SDS011;10857;52.228;21.026;2022-07-04T07:38:25;5.47;;;4.90;;
21392;SDS011;10857;52.228;21.026;2022-07-04T07:40:53;7.20;;;5.38;;
21392;SDS011;10857;52.228;21.026;2022-07-04T07:43:20;6.40;;;5.22;;
21392;SDS011;10857;52.228;21.026;2022-07-04T07:45:47;7.00;;;5.25;;
21392;SDS011;10857;52.228;21.026;2022-07-04T07:48:14;8.00;;;5.07;;
21392;SDS011;10857;52.228;21.026;2022-07-04T07:50:42;9.63;;;5.78;;
21392;SDS011;10857;52.228;21.026;2022-07-04T07:53:09;10.32;;;5.80;;
21392;SDS011;10857;52.228;21.026;2022-07-04T07:55:37;7.37;;;5.50;;
21392;SDS011;10857;52.228;21.026;2022-07-04T07:58:04;7.68;;;6.30;;
21392;SDS011;10857;52.228;21.026;2022-07-04T08:00:32;7.72;;;6.80;;
21392;SDS011;10857;52.228;21.026;2022-07-04T08:03:19;7.43;;;5.57;;
21392;SDS011;10857;52.228;21.026;2022-07-04T08:06:05;9.93;;;6.70;;
21392;SDS011;10857;52.228;21.026;2022-07-04T08:08:33;7.20;;;5.28;;
21392;SDS011;10857;52.228;21.026;2022-07-04T08:11:00;11.52;;;5.70;;
21392;SDS011;10857;52.228;21.026;2022-07-04T08:13:27;9.95;;;5.82;;
21392;SDS011;10857;52.228;21.026;2022-07-04T08:15:54;8.77;;;4.68;;
21392;SDS011;10857;52.228;21.026;2022-07-04T08:18:21;5.10;;;4.20;;
21392;SDS011;10857;52.228;21.026;2022-07-04T08:20:50;7.95;;;4.90;;
21392;SDS011;10857;52.228;21.026;2022-07-04T08:23:37;5.35;;;4.82;;
21392;SDS011;10857;52.228;21.026;2022-07-04T08:26:22;7.03;;;4.30;;
21392;SDS011;10857;52.228;21.026;2022-07-04T08:28:49;8.00;;;4.35;;
21392;SDS011;10857;52.228;21.026;2022-07-04T08:31:18;6.20;;;4.10;;
21392;SDS011;10857;52.228;21.026;2022-07-04T08:34:05;4.88;;;4.20;;
21392;SDS011;10857;52.228;21.026;2022-07-04T08:36:32;7.57;;;4.38;;
21392;SDS011;10857;52.228;21.026;2022-07-04T08:38:59;5.43;;;4.70;;
21392;SDS011;10857;52.228;21.026;2022-07-04T08:41:26;6.80;;;4.38;;
21392;SDS011;10857;52.228;21.026;2022-07-04T08:43:55;6.20;;;4.05;;
21392;SDS011;10857;52.228;21.026;2022-07-04T08:46:24;6.70;;;4.50;;
21392;SDS011;10857;52.228;21.026;2022-07-04T08:48:53;6.00;;;3.90;;
21392;SDS011;10857;52.228;21.026;2022-07-04T08:54:12;6.45;;;3.80;;
21392;SDS011;10857;52.228;21.026;2022-07-04T08:56:59;3.95;;;3.55;;
21392;SDS011;10857;52.228;21.026;2022-07-04T08:59:44;3.85;;;3.45;;
21392;SDS011;10857;52.228;21.026;2022-07-04T09:02:15;3.90;;;3.50;;
21392;SDS011;10857;52.228;21.026;2022-07-04T09:04:44;5.25;;;3.67;;
21392;SDS011;10857;52.228;21.026;2022-07-04T09:07:14;5.43;;;3.55;;
21392;SDS011;10857;52.228;21.026;2022-07-04T09:09:40;6.53;;;3.25;;
21392;SDS011;10857;52.228;21.026;2022-07-04T09:12:13;5.65;;;3.47;;
21392;SDS011;10857;52.228;21.026;2022-07-04T09:14:44;5.72;;;3.55;;
21392;SDS011;10857;52.228;21.026;2022-07-04T09:17:11;4.72;;;3.40;;
21392;SDS011;10857;52.228;21.026;2022-07-04T09:19:38;5.45;;;3.08;;
21392;SDS011;10857;52.228;21.026;2022-07-04T09:22:09;3.95;;;3.42;;
21392;SDS011;10857;52.228;21.026;2022-07-04T09:24:47;3.80;;;2.85;;
21392;SDS011;10857;52.228;21.026;2022-07-04T09:30:06;3.33;;;2.90;;
21392;SDS011;10857;52.228;21.026;2022-07-04T09:35:04;2.70;;;2.50;;
21392;SDS011;10857;52.228;21.026;2022-07-04T09:40:04;5.85;;;3.10;;
21392;SDS011;10857;52.228;21.026;2022-07-04T09:42:39;5.35;;;3.00;;
21392;SDS011;10857;52.228;21.026;2022-07-04T09:45:08;3.38;;;2.70;;
21392;SDS011;10857;52.228;21.026;2022-07-04T09:47:38;5.70;;;3.20;;
21392;SDS011;10857;52.228;21.026;2022-07-04T09:50:12;3.03;;;2.80;;
21392;SDS011;10857;52.228;21.026;2022-07-04T09:58:02;3.00;;;2.80;;
21392;SDS011;10857;52.228;21.026;2022-07-04T10:00:37;4.68;;;3.28;;
21392;SDS011;10857;52.228;21.026;2022-07-04T10:05:48;3.72;;;3.25;;
21392;SDS011;10857;52.228;21.026;2022-07-04T10:08:39;6.28;;;3.35;;
21392;SDS011;10857;52.228;21.026;2022-07-04T10:11:08;6.55;;;3.60;;
21392;SDS011;10857;52.228;21.026;2022-07-04T10:13:44;4.50;;;3.20;;
21392;SDS011;10857;52.228;21.026;2022-07-04T10:16:14;6.05;;;3.50;;
21392;SDS011;10857;52.228;21.026;2022-07-04T10:18:42;4.60;;;3.55;;
21392;SDS011;10857;52.228;21.026;2022-07-04T10:21:09;4.03;;;3.63;;
21392;SDS011;10857;52.228;21.026;2022-07-04T10:23:38;5.18;;;3.67;;
21392;SDS011;10857;52.228;21.026;2022-07-04T10:26:05;4.35;;;3.53;;
21392;SDS011;10857;52.228;21.026;2022-07-04T10:28:33;4.00;;;3.60;;
21392;SDS011;10857;52.228;21.026;2022-07-04T10:31:00;4.25;;;3.67;;
21392;SDS011;10857;52.228;21.026;2022-07-04T10:33:28;4.38;;;3.60;;
21392;SDS011;10857;52.228;21.026;2022-07-04T10:35:57;5.63;;;3.42;;
21392;SDS011;10857;52.228;21.026;2022-07-04T10:38:51;6.32;;;3.60;;
21392;SDS011;10857;52.228;21.026;2022-07-04T10:41:25;3.70;;;3.40;;
21392;SDS011;10857;52.228;21.026;2022-07-04T10:43:55;5.20;;;3.50;;
21392;SDS011;10857;52.228;21.026;2022-07-04T10:46:34;3.67;;;3.33;;
21392;SDS011;10857;52.228;21.026;2022-07-04T10:51:55;4.57;;;3.53;;
21392;SDS011;10857;52.228;21.026;2022-07-04T10:54:33;5.78;;;3.78;;
21392;SDS011;10857;52.228;21.026;2022-07-04T10:57:12;4.32;;;3.53;;
21392;SDS011;10857;52.228;21.026;2022-07-04T11:02:33;4.20;;;3.80;;
21392;SDS011;10857;52.228;21.026;2022-07-04T11:10:26;7.15;;;4.00;;
21392;SDS011;10857;52.228;21.026;2022-07-04T11:17:55;5.82;;;3.80;;
21392;SDS011;10857;52.228;21.026;2022-07-04T11:20:29;5.72;;;4.00;;
21392;SDS011;10857;52.228;21.026;2022-07-04T11:23:04;5.63;;;3.90;;
21392;SDS011;10857;52.228;21.026;2022-07-04T11:25:43;4.07;;;3.72;;
21392;SDS011;10857;52.228;21.026;2022-07-04T11:28:18;6.03;;;4.00;;
21392;SDS011;10857;52.228;21.026;2022-07-04T11:31:12;7.30;;;3.72;;
21392;SDS011;10857;52.228;21.026;2022-07-04T11:33:41;4.68;;;3.80;;
21392;SDS011;10857;52.228;21.026;2022-07-04T11:36:10;4.50;;;3.80;;
21392;SDS011;10857;52.228;21.026;2022-07-04T11:41:16;3.97;;;3.63;;
21392;SDS011;10857;52.228;21.026;2022-07-04T11:44:03;3.95;;;3.65;;
21392;SDS011;10857;52.228;21.026;2022-07-04T11:46:51;3.85;;;3.42;;
21392;SDS011;10857;52.228;21.026;2022-07-04T11:52:23;4.15;;;3.70;;
21392;SDS011;10857;52.228;21.026;2022-07-04T11:55:13;7.32;;;3.90;;
21392;SDS011;10857;52.228;21.026;2022-07-04T11:57:43;5.35;;;4.10;;
21392;SDS011;10857;52.228;21.026;2022-07-04T12:00:12;5.07;;;3.78;;
21392;SDS011;10857;52.228;21.026;2022-07-04T12:02:46;3.90;;;3.60;;
21392;SDS011;10857;52.228;21.026;2022-07-04T12:05:15;4.45;;;3.80;;
21392;SDS011;10857;52.228;21.026;2022-07-04T12:07:47;5.13;;;3.72;;
21392;SDS011;10857;52.228;21.026;2022-07-04T12:10:35;4.95;;;3.80;;
21392;SDS011;10857;52.228;21.026;2022-07-04T12:13:06;4.35;;;3.42;;
21392;SDS011;10857;52.228;21.026;2022-07-04T12:15:42;4.88;;;3.40;;
21392;SDS011;10857;52.228;21.026;2022-07-04T12:18:19;4.07;;;3.40;;
21392;SDS011;10857;52.228;21.026;2022-07-04T12:21:12;4.07;;;3.70;;
21392;SDS011;10857;52.228;21.026;2022-07-04T12:23:49;5.15;;;3.80;;
21392;SDS011;10857;52.228;21.026;2022-07-04T12:26:33;4.55;;;3.63;;
21392;SDS011;10857;52.228;21.026;2022-07-04T12:29:06;6.05;;;3.63;;
21392;SDS011;10857;52.228;21.026;2022-07-04T12:31:38;4.13;;;3.42;;
21392;SDS011;10857;52.228;21.026;2022-07-04T12:34:14;4.88;;;3.55;;
21392;SDS011;10857;52.228;21.026;2022-07-04T12:36:52;5.32;;;3.60;;
21392;SDS011;10857;52.228;21.026;2022-07-04T12:39:32;6.28;;;3.70;;
21392;SDS011;10857;52.228;21.026;2022-07-04T12:42:10;6.43;;;3.92;;
21392;SDS011;10857;52.228;21.026;2022-07-04T12:44:44;6.03;;;3.70;;
21392;SDS011;10857;52.228;21.026;2022-07-04T12:47:19;4.63;;;3.80;;
21392;SDS011;10857;52.228;21.026;2022-07-04T12:50:05;3.83;;;3.53;;
21392;SDS011;10857;52.228;21.026;2022-07-04T12:52:34;5.88;;;3.88;;
21392;SDS011;10857;52.228;21.026;2022-07-04T12:55:07;4.72;;;3.60;;
21392;SDS011;10857;52.228;21.026;2022-07-04T12:57:38;7.88;;;4.25;;
21392;SDS011;10857;52.228;21.026;2022-07-04T13:00:06;4.82;;;3.90;;
21392;SDS011;10857;52.228;21.026;2022-07-04T13:02:56;5.32;;;4.10;;
21392;SDS011;10857;52.228;21.026;2022-07-04T13:05:23;6.30;;;3.97;;
21392;SDS011;10857;52.228;21.026;2022-07-04T13:07:50;5.15;;;4.07;;
21392;SDS011;10857;52.228;21.026;2022-07-04T13:10:17;8.55;;;4.15;;
21392;SDS011;10857;52.228;21.026;2022-07-04T13:12:44;7.22;;;4.43;;
21392;SDS011;10857;52.228;21.026;2022-07-04T13:15:11;5.80;;;4.10;;
21392;SDS011;10857;52.228;21.026;2022-07-04T13:17:38;4.80;;;4.07;;
21392;SDS011;10857;52.228;21.026;2022-07-04T13:20:05;5.90;;;4.22;;
21392;SDS011;10857;52.228;21.026;2022-07-04T13:22:33;5.63;;;4.50;;
21392;SDS011;10857;52.228;21.026;2022-07-04T13:25:00;5.50;;;3.97;;
21392;SDS011;10857;52.228;21.026;2022-07-04T13:27:30;5.68;;;4.22;;
21392;SDS011;10857;52.228;21.026;2022-07-04T13:29:57;5.63;;;4.38;;
21392;SDS011;10857;52.228;21.026;2022-07-04T13:32:28;7.55;;;3.95;;
21392;SDS011;10857;52.228;21.026;2022-07-04T13:34:55;5.18;;;4.18;;
21392;SDS011;10857;52.228;21.026;2022-07-04T13:37:22;5.22;;;4.30;;
21392;SDS011;10857;52.228;21.026;2022-07-04T13:39:49;9.35;;;4.00;;
21392;SDS011;10857;52.228;21.026;2022-07-04T13:42:18;5.60;;;4.15;;
21392;SDS011;10857;52.228;21.026;2022-07-04T13:45:06;5.35;;;4.38;;
21392;SDS011;10857;52.228;21.026;2022-07-04T13:47:34;5.15;;;4.03;;
21392;SDS011;10857;52.228;21.026;2022-07-04T13:50:02;6.88;;;3.92;;
21392;SDS011;10857;52.228;21.026;2022-07-04T13:52:29;4.57;;;3.90;;
21392;SDS011;10857;52.228;21.026;2022-07-04T13:54:56;4.00;;;3.60;;
21392;SDS011;10857;52.228;21.026;2022-07-04T13:57:23;4.22;;;3.70;;
21392;SDS011;10857;52.228;21.026;2022-07-04T13:59:51;3.83;;;3.40;;
21392;SDS011;10857;52.228;21.026;2022-07-04T14:02:18;4.93;;;3.70;;
21392;SDS011;10857;52.228;21.026;2022-07-04T14:04:46;5.47;;;3.70;;
21392;SDS011;10857;52.228;21.026;2022-07-04T14:07:15;4.20;;;3.80;;
21392;SDS011;10857;52.228;21.026;2022-07-04T14:09:51;4.20;;;3.80;;
21392;SDS011;10857;52.228;21.026;2022-07-04T14:12:20;4.10;;;3.70;;
21392;SDS011;10857;52.228;21.026;2022-07-04T14:14:50;4.95;;;3.95;;
21392;SDS011;10857;52.228;21.026;2022-07-04T14:17:17;6.50;;;3.60;;
21392;SDS011;10857;52.228;21.026;2022-07-04T14:20:01;4.95;;;3.88;;
21392;SDS011;10857;52.228;21.026;2022-07-04T14:22:30;6.60;;;3.92;;
21392;SDS011;10857;52.228;21.026;2022-07-04T14:24:58;4.28;;;3.85;;
21392;SDS011;10857;52.228;21.026;2022-07-04T14:27:24;4.63;;;3.85;;
21392;SDS011;10857;52.228;21.026;2022-07-04T14:29:51;5.18;;;4.10;;
21392;SDS011;10857;52.228;21.026;2022-07-04T14:32:18;6.75;;;4.03;;
21392;SDS011;10857;52.228;21.026;2022-07-04T14:34:47;4.43;;;3.78;;
21392;SDS011;10857;52.228;21.026;2022-07-04T14:37:15;5.72;;;4.05;;
21392;SDS011;10857;52.228;21.026;2022-07-04T14:39:47;4.70;;;4.00;;
21392;SDS011;10857;52.228;21.026;2022-07-04T14:42:15;6.93;;;3.88;;
21392;SDS011;10857;52.228;21.026;2022-07-04T14:44:43;4.07;;;3.67;;
21392;SDS011;10857;52.228;21.026;2022-07-04T14:47:11;5.45;;;4.05;;
21392;SDS011;10857;52.228;21.026;2022-07-04T14:49:39;7.03;;;3.90;;
21392;SDS011;10857;52.228;21.026;2022-07-04T14:52:06;5.15;;;3.72;;
21392;SDS011;10857;52.228;21.026;2022-07-04T14:54:34;4.25;;;3.80;;
21392;SDS011;10857;52.228;21.026;2022-07-04T14:57:03;5.68;;;4.00;;
21392;SDS011;10857;52.228;21.026;2022-07-04T14:59:30;5.00;;;4.22;;
21392;SDS011;10857;52.228;21.026;2022-07-04T15:01:58;5.63;;;4.05;;
21392;SDS011;10857;52.228;21.026;2022-07-04T15:04:26;7.07;;;4.20;;
21392;SDS011;10857;52.228;21.026;2022-07-04T15:06:57;6.30;;;4.03;;
21392;SDS011;10857;52.228;21.026;2022-07-04T15:09:24;7.30;;;4.55;;
21392;SDS011;10857;52.228;21.026;2022-07-04T15:11:51;5.70;;;4.10;;
21392;SDS011;10857;52.228;21.026;2022-07-04T15:14:18;13.90;;;4.65;;
21392;SDS011;10857;52.228;21.026;2022-07-04T15:16:45;7.07;;;4.13;;
21392;SDS011;10857;52.228;21.026;2022-07-04T15:19:12;7.53;;;4.18;;
21392;SDS011;10857;52.228;21.026;2022-07-04T15:21:41;4.72;;;4.32;;
21392;SDS011;10857;52.228;21.026;2022-07-04T15:24:27;9.32;;;4.70;;
21392;SDS011;10857;52.228;21.026;2022-07-04T15:26:54;7.10;;;4.68;;